Terminal Aerodrome Forecast
Issued by NWS

Home | Current Version | Previous Version | Text Only | Print | Product List | Glossary On
Versions: 1 2 3 4 5 6 7 8 9 10 11 12 13 14 15 16 17 18 19 20
000
FTUS41 KBGM 212322
TAFELM
TAF
KELM 212322Z 2200/2224 VRB03KT P6SM SCT250
      TEMPO 2207/2211 2SM BR SCT005
     FM221300 20009KT P6SM BKN050
     FM221700 20014G25KT P6SM BKN090
      TEMPO 2218/2222 4SM TSRA BKN040CB=

USA.gov is the U.S. government's official web portal to all federal, state and local government web resources and services.